sensor_id;sensor_type;location;lat;lon;timestamp;P1;durP1;ratioP1;P2;durP2;ratioP2
14849;SDS011;7517;48.400;11.770;2023-12-22T00:01:57;0.73;;;0.30;;
14849;SDS011;7517;48.400;11.770;2023-12-22T00:04:24;0.20;;;0.20;;
14849;SDS011;7517;48.400;11.770;2023-12-22T00:06:51;1.20;;;0.30;;
14849;SDS011;7517;48.400;11.770;2023-12-22T00:09:19;1.33;;;0.23;;
14849;SDS011;7517;48.400;11.770;2023-12-22T00:11:47;0.80;;;0.30;;
14849;SDS011;7517;48.400;11.770;2023-12-22T00:14:14;0.30;;;0.20;;
14849;SDS011;7517;48.400;11.770;2023-12-22T00:16:43;1.03;;;0.37;;
14849;SDS011;7517;48.400;11.770;2023-12-22T00:19:10;0.83;;;0.20;;
14849;SDS011;7517;48.400;11.770;2023-12-22T00:21:37;0.13;;;0.10;;
14849;SDS011;7517;48.400;11.770;2023-12-22T00:24:05;0.37;;;0.20;;
14849;SDS011;7517;48.400;11.770;2023-12-22T00:26:32;0.43;;;0.20;;
14849;SDS011;7517;48.400;11.770;2023-12-22T00:28:59;0.17;;;0.10;;
14849;SDS011;7517;48.400;11.770;2023-12-22T00:31:26;0.73;;;0.30;;
14849;SDS011;7517;48.400;11.770;2023-12-22T00:33:55;1.07;;;0.27;;
14849;SDS011;7517;48.400;11.770;2023-12-22T00:36:22;0.80;;;0.27;;
14849;SDS011;7517;48.400;11.770;2023-12-22T00:38:49;0.40;;;0.20;;
14849;SDS011;7517;48.400;11.770;2023-12-22T00:41:16;1.17;;;0.40;;
14849;SDS011;7517;48.400;11.770;2023-12-22T00:43:44;0.33;;;0.20;;
14849;SDS011;7517;48.400;11.770;2023-12-22T00:46:11;0.97;;;0.50;;
14849;SDS011;7517;48.400;11.770;2023-12-22T00:48:39;0.50;;;0.23;;
14849;SDS011;7517;48.400;11.770;2023-12-22T00:51:08;1.20;;;0.40;;
14849;SDS011;7517;48.400;11.770;2023-12-22T00:53:35;0.47;;;0.20;;
14849;SDS011;7517;48.400;11.770;2023-12-22T00:56:02;0.70;;;0.27;;
14849;SDS011;7517;48.400;11.770;2023-12-22T00:58:31;2.30;;;0.50;;
14849;SDS011;7517;48.400;11.770;2023-12-22T01:00:58;1.50;;;0.30;;
14849;SDS011;7517;48.400;11.770;2023-12-22T01:03:25;1.00;;;0.30;;
14849;SDS011;7517;48.400;11.770;2023-12-22T01:05:52;0.30;;;0.30;;
14849;SDS011;7517;48.400;11.770;2023-12-22T01:08:21;1.20;;;0.53;;
14849;SDS011;7517;48.400;11.770;2023-12-22T01:10:48;1.33;;;0.30;;
14849;SDS011;7517;48.400;11.770;2023-12-22T01:13:15;1.37;;;0.80;;
14849;SDS011;7517;48.400;11.770;2023-12-22T01:15:45;1.63;;;0.30;;
14849;SDS011;7517;48.400;11.770;2023-12-22T01:18:12;0.30;;;0.30;;
14849;SDS011;7517;48.400;11.770;2023-12-22T01:20:39;1.63;;;1.03;;
14849;SDS011;7517;48.400;11.770;2023-12-22T01:23:07;1.37;;;0.30;;
14849;SDS011;7517;48.400;11.770;2023-12-22T01:25:37;0.60;;;0.23;;
14849;SDS011;7517;48.400;11.770;2023-12-22T01:28:05;0.50;;;0.30;;
14849;SDS011;7517;48.400;11.770;2023-12-22T01:30:32;1.20;;;0.30;;
14849;SDS011;7517;48.400;11.770;2023-12-22T01:32:59;0.93;;;0.40;;
14849;SDS011;7517;48.400;11.770;2023-12-22T01:35:26;1.40;;;0.33;;
14849;SDS011;7517;48.400;11.770;2023-12-22T01:37:53;0.40;;;0.30;;
14849;SDS011;7517;48.400;11.770;2023-12-22T01:40:22;0.53;;;0.23;;
14849;SDS011;7517;48.400;11.770;2023-12-22T01:42:50;0.50;;;0.30;;
14849;SDS011;7517;48.400;11.770;2023-12-22T01:45:17;0.93;;;0.30;;
14849;SDS011;7517;48.400;11.770;2023-12-22T01:47:45;0.50;;;0.30;;
14849;SDS011;7517;48.400;11.770;2023-12-22T01:50:13;1.80;;;0.50;;
14849;SDS011;7517;48.400;11.770;2023-12-22T01:52:42;0.93;;;0.30;;
14849;SDS011;7517;48.400;11.770;2023-12-22T01:55:11;0.70;;;0.40;;
14849;SDS011;7517;48.400;11.770;2023-12-22T01:57:41;1.57;;;0.40;;
14849;SDS011;7517;48.400;11.770;2023-12-22T02:00:14;1.23;;;0.20;;
14849;SDS011;7517;48.400;11.770;2023-12-22T02:02:42;2.10;;;0.30;;
14849;SDS011;7517;48.400;11.770;2023-12-22T02:05:11;1.07;;;0.23;;
14849;SDS011;7517;48.400;11.770;2023-12-22T02:07:39;0.50;;;0.30;;
14849;SDS011;7517;48.400;11.770;2023-12-22T02:10:08;0.47;;;0.20;;
14849;SDS011;7517;48.400;11.770;2023-12-22T02:12:36;0.80;;;0.20;;
14849;SDS011;7517;48.400;11.770;2023-12-22T02:15:04;0.90;;;0.30;;
14849;SDS011;7517;48.400;11.770;2023-12-22T02:17:36;0.50;;;0.30;;
14849;SDS011;7517;48.400;11.770;2023-12-22T02:20:11;0.83;;;0.30;;
14849;SDS011;7517;48.400;11.770;2023-12-22T02:22:40;0.90;;;0.20;;
14849;SDS011;7517;48.400;11.770;2023-12-22T02:25:07;0.20;;;0.10;;
14849;SDS011;7517;48.400;11.770;2023-12-22T02:27:36;0.90;;;0.53;;
14849;SDS011;7517;48.400;11.770;2023-12-22T02:30:12;0.20;;;0.10;;
14849;SDS011;7517;48.400;11.770;2023-12-22T02:32:50;1.60;;;0.20;;
14849;SDS011;7517;48.400;11.770;2023-12-22T02:35:23;1.10;;;0.20;;
14849;SDS011;7517;48.400;11.770;2023-12-22T02:37:54;0.30;;;0.10;;
14849;SDS011;7517;48.400;11.770;2023-12-22T02:40:24;0.40;;;0.10;;
14849;SDS011;7517;48.400;11.770;2023-12-22T02:42:52;0.30;;;0.10;;
14849;SDS011;7517;48.400;11.770;2023-12-22T02:45:20;0.27;;;0.20;;
14849;SDS011;7517;48.400;11.770;2023-12-22T02:47:47;1.10;;;0.30;;
14849;SDS011;7517;48.400;11.770;2023-12-22T02:50:15;0.40;;;0.17;;
14849;SDS011;7517;48.400;11.770;2023-12-22T02:52:43;0.70;;;0.20;;
14849;SDS011;7517;48.400;11.770;2023-12-22T02:55:11;0.30;;;0.20;;
14849;SDS011;7517;48.400;11.770;2023-12-22T02:57:39;0.27;;;0.10;;
14849;SDS011;7517;48.400;11.770;2023-12-22T03:00:06;0.40;;;0.20;;
14849;SDS011;7517;48.400;11.770;2023-12-22T03:02:35;0.37;;;0.10;;
14849;SDS011;7517;48.400;11.770;2023-12-22T03:05:02;0.30;;;0.13;;
14849;SDS011;7517;48.400;11.770;2023-12-22T03:07:30;0.60;;;0.20;;
14849;SDS011;7517;48.400;11.770;2023-12-22T03:09:57;0.30;;;0.30;;
14849;SDS011;7517;48.400;11.770;2023-12-22T03:12:26;1.27;;;0.20;;
14849;SDS011;7517;48.400;11.770;2023-12-22T03:14:53;0.10;;;0.10;;
14849;SDS011;7517;48.400;11.770;2023-12-22T03:17:20;0.10;;;0.10;;
14849;SDS011;7517;48.400;11.770;2023-12-22T03:19:47;0.57;;;0.20;;
14849;SDS011;7517;48.400;11.770;2023-12-22T03:22:14;0.83;;;0.20;;
14849;SDS011;7517;48.400;11.770;2023-12-22T03:24:43;0.40;;;0.30;;
14849;SDS011;7517;48.400;11.770;2023-12-22T03:27:10;0.20;;;0.20;;
14849;SDS011;7517;48.400;11.770;2023-12-22T03:29:42;0.67;;;0.23;;
14849;SDS011;7517;48.400;11.770;2023-12-22T03:32:09;0.40;;;0.20;;
14849;SDS011;7517;48.400;11.770;2023-12-22T03:34:37;0.20;;;0.20;;
14849;SDS011;7517;48.400;11.770;2023-12-22T03:37:04;0.50;;;0.20;;
14849;SDS011;7517;48.400;11.770;2023-12-22T03:39:31;0.30;;;0.17;;
14849;SDS011;7517;48.400;11.770;2023-12-22T03:41:58;0.20;;;0.20;;
14849;SDS011;7517;48.400;11.770;2023-12-22T03:44:27;0.63;;;0.20;;
14849;SDS011;7517;48.400;11.770;2023-12-22T03:46:55;0.23;;;0.20;;
14849;SDS011;7517;48.400;11.770;2023-12-22T03:49:22;0.37;;;0.33;;
14849;SDS011;7517;48.400;11.770;2023-12-22T03:51:49;0.73;;;0.10;;
14849;SDS011;7517;48.400;11.770;2023-12-22T03:54:16;0.47;;;0.10;;
14849;SDS011;7517;48.400;11.770;2023-12-22T03:56:44;0.20;;;0.20;;
14849;SDS011;7517;48.400;11.770;2023-12-22T03:59:11;0.43;;;0.20;;
14849;SDS011;7517;48.400;11.770;2023-12-22T04:01:39;0.77;;;0.20;;
14849;SDS011;7517;48.400;11.770;2023-12-22T04:04:07;0.40;;;0.10;;
14849;SDS011;7517;48.400;11.770;2023-12-22T04:06:37;0.23;;;0.17;;
14849;SDS011;7517;48.400;11.770;2023-12-22T04:09:05;0.50;;;0.10;;
14849;SDS011;7517;48.400;11.770;2023-12-22T04:11:32;3.10;;;0.53;;
14849;SDS011;7517;48.400;11.770;2023-12-22T04:14:00;1.10;;;0.10;;
14849;SDS011;7517;48.400;11.770;2023-12-22T04:16:27;0.67;;;0.17;;
14849;SDS011;7517;48.400;11.770;2023-12-22T04:18:54;0.10;;;0.10;;
14849;SDS011;7517;48.400;11.770;2023-12-22T04:21:23;0.10;;;0.10;;
14849;SDS011;7517;48.400;11.770;2023-12-22T04:23:50;0.30;;;0.10;;
14849;SDS011;7517;48.400;11.770;2023-12-22T04:26:17;0.10;;;0.10;;
14849;SDS011;7517;48.400;11.770;2023-12-22T04:28:44;0.73;;;0.10;;
14849;SDS011;7517;48.400;11.770;2023-12-22T04:31:11;0.33;;;0.20;;
14849;SDS011;7517;48.400;11.770;2023-12-22T04:33:38;0.80;;;0.20;;
14849;SDS011;7517;48.400;11.770;2023-12-22T04:36:05;0.67;;;0.10;;
14849;SDS011;7517;48.400;11.770;2023-12-22T04:38:34;0.20;;;0.10;;
14849;SDS011;7517;48.400;11.770;2023-12-22T04:41:01;0.87;;;0.13;;
14849;SDS011;7517;48.400;11.770;2023-12-22T04:43:29;0.03;;;0.03;;
14849;SDS011;7517;48.400;11.770;2023-12-22T04:45:56;0.20;;;0.20;;
14849;SDS011;7517;48.400;11.770;2023-12-22T04:48:23;0.20;;;0.10;;
14849;SDS011;7517;48.400;11.770;2023-12-22T04:50:50;0.60;;;0.23;;
14849;SDS011;7517;48.400;11.770;2023-12-22T04:53:17;1.17;;;0.23;;
14849;SDS011;7517;48.400;11.770;2023-12-22T04:55:46;1.63;;;0.30;;
14849;SDS011;7517;48.400;11.770;2023-12-22T04:58:13;0.43;;;0.40;;
14849;SDS011;7517;48.400;11.770;2023-12-22T05:00:40;1.50;;;0.30;;
14849;SDS011;7517;48.400;11.770;2023-12-22T05:03:07;0.97;;;0.20;;
14849;SDS011;7517;48.400;11.770;2023-12-22T05:05:35;1.00;;;0.30;;
14849;SDS011;7517;48.400;11.770;2023-12-22T05:08:02;0.77;;;0.20;;
14849;SDS011;7517;48.400;11.770;2023-12-22T05:10:30;0.40;;;0.20;;
14849;SDS011;7517;48.400;11.770;2023-12-22T05:12:59;0.30;;;0.10;;
14849;SDS011;7517;48.400;11.770;2023-12-22T05:15:26;0.30;;;0.00;;
14849;SDS011;7517;48.400;11.770;2023-12-22T05:17:53;1.87;;;0.20;;
14849;SDS011;7517;48.400;11.770;2023-12-22T05:20:20;0.10;;;0.10;;
14849;SDS011;7517;48.400;11.770;2023-12-22T05:22:47;0.13;;;0.10;;
14849;SDS011;7517;48.400;11.770;2023-12-22T05:25:14;0.17;;;0.10;;
14849;SDS011;7517;48.400;11.770;2023-12-22T05:27:42;0.57;;;0.10;;
14849;SDS011;7517;48.400;11.770;2023-12-22T05:30:11;0.20;;;0.10;;
14849;SDS011;7517;48.400;11.770;2023-12-22T05:32:40;0.30;;;0.10;;
14849;SDS011;7517;48.400;11.770;2023-12-22T05:35:07;0.10;;;0.10;;
14849;SDS011;7517;48.400;11.770;2023-12-22T05:37:35;0.10;;;0.10;;
14849;SDS011;7517;48.400;11.770;2023-12-22T05:40:02;0.00;;;0.00;;
14849;SDS011;7517;48.400;11.770;2023-12-22T05:42:31;0.00;;;0.00;;
14849;SDS011;7517;48.400;11.770;2023-12-22T05:44:58;0.10;;;0.10;;
14849;SDS011;7517;48.400;11.770;2023-12-22T05:47:27;0.00;;;0.00;;
14849;SDS011;7517;48.400;11.770;2023-12-22T05:49:54;0.10;;;0.10;;
14849;SDS011;7517;48.400;11.770;2023-12-22T05:52:21;0.37;;;0.10;;
14849;SDS011;7517;48.400;11.770;2023-12-22T05:54:48;0.00;;;0.00;;
14849;SDS011;7517;48.400;11.770;2023-12-22T05:57:15;0.30;;;0.07;;
14849;SDS011;7517;48.400;11.770;2023-12-22T05:59:43;0.37;;;0.10;;
14849;SDS011;7517;48.400;11.770;2023-12-22T06:02:10;0.10;;;0.10;;
14849;SDS011;7517;48.400;11.770;2023-12-22T06:04:40;0.10;;;0.10;;
14849;SDS011;7517;48.400;11.770;2023-12-22T06:07:07;0.10;;;0.10;;
14849;SDS011;7517;48.400;11.770;2023-12-22T06:09:34;0.20;;;0.10;;
14849;SDS011;7517;48.400;11.770;2023-12-22T06:12:01;0.23;;;0.20;;
14849;SDS011;7517;48.400;11.770;2023-12-22T06:14:30;0.33;;;0.10;;
14849;SDS011;7517;48.400;11.770;2023-12-22T06:16:57;2.10;;;0.20;;
14849;SDS011;7517;48.400;11.770;2023-12-22T06:19:24;0.27;;;0.27;;
14849;SDS011;7517;48.400;11.770;2023-12-22T06:21:55;0.30;;;0.23;;
14849;SDS011;7517;48.400;11.770;2023-12-22T06:24:22;0.50;;;0.30;;
14849;SDS011;7517;48.400;11.770;2023-12-22T06:26:52;0.30;;;0.30;;
14849;SDS011;7517;48.400;11.770;2023-12-22T06:29:19;0.93;;;0.40;;
14849;SDS011;7517;48.400;11.770;2023-12-22T06:31:46;0.67;;;0.30;;
14849;SDS011;7517;48.400;11.770;2023-12-22T06:34:15;0.23;;;0.23;;
14849;SDS011;7517;48.400;11.770;2023-12-22T06:36:43;1.47;;;0.30;;
14849;SDS011;7517;48.400;11.770;2023-12-22T06:39:14;0.60;;;0.37;;
14849;SDS011;7517;48.400;11.770;2023-12-22T06:41:41;0.40;;;0.30;;
14849;SDS011;7517;48.400;11.770;2023-12-22T06:44:08;0.73;;;0.50;;
14849;SDS011;7517;48.400;11.770;2023-12-22T06:46:35;0.50;;;0.47;;
14849;SDS011;7517;48.400;11.770;2023-12-22T06:49:03;0.73;;;0.40;;
14849;SDS011;7517;48.400;11.770;2023-12-22T06:51:31;1.13;;;0.60;;
14849;SDS011;7517;48.400;11.770;2023-12-22T06:54:00;0.87;;;0.30;;
14849;SDS011;7517;48.400;11.770;2023-12-22T06:56:31;0.53;;;0.40;;
14849;SDS011;7517;48.400;11.770;2023-12-22T06:59:01;0.20;;;0.20;;
14849;SDS011;7517;48.400;11.770;2023-12-22T07:01:29;0.30;;;0.20;;
14849;SDS011;7517;48.400;11.770;2023-12-22T07:03:58;1.13;;;0.20;;
14849;SDS011;7517;48.400;11.770;2023-12-22T07:06:27;0.27;;;0.10;;
14849;SDS011;7517;48.400;11.770;2023-12-22T07:08:56;0.10;;;0.10;;
14849;SDS011;7517;48.400;11.770;2023-12-22T07:11:56;0.20;;;0.20;;
14849;SDS011;7517;48.400;11.770;2023-12-22T07:14:23;0.67;;;0.00;;
14849;SDS011;7517;48.400;11.770;2023-12-22T07:16:50;0.10;;;0.10;;
14849;SDS011;7517;48.400;11.770;2023-12-22T07:19:18;0.10;;;0.10;;
14849;SDS011;7517;48.400;11.770;2023-12-22T07:21:45;0.30;;;0.20;;
14849;SDS011;7517;48.400;11.770;2023-12-22T07:24:12;0.40;;;0.20;;
14849;SDS011;7517;48.400;11.770;2023-12-22T07:26:39;0.10;;;0.10;;
14849;SDS011;7517;48.400;11.770;2023-12-22T07:29:08;0.27;;;0.10;;
14849;SDS011;7517;48.400;11.770;2023-12-22T07:31:35;0.00;;;0.00;;
14849;SDS011;7517;48.400;11.770;2023-12-22T07:34:02;0.13;;;0.10;;
14849;SDS011;7517;48.400;11.770;2023-12-22T07:36:29;0.10;;;0.10;;
14849;SDS011;7517;48.400;11.770;2023-12-22T07:38:56;0.10;;;0.10;;
14849;SDS011;7517;48.400;11.770;2023-12-22T07:41:24;0.20;;;0.13;;
14849;SDS011;7517;48.400;11.770;2023-12-22T07:43:51;0.40;;;0.30;;
14849;SDS011;7517;48.400;11.770;2023-12-22T07:46:20;1.30;;;0.20;;
14849;SDS011;7517;48.400;11.770;2023-12-22T07:48:48;0.50;;;0.20;;
14849;SDS011;7517;48.400;11.770;2023-12-22T07:51:16;1.13;;;0.30;;
14849;SDS011;7517;48.400;11.770;2023-12-22T07:53:43;0.20;;;0.20;;
14849;SDS011;7517;48.400;11.770;2023-12-22T07:56:10;0.43;;;0.20;;
14849;SDS011;7517;48.400;11.770;2023-12-22T07:58:38;0.47;;;0.20;;
14849;SDS011;7517;48.400;11.770;2023-12-22T08:01:05;0.73;;;0.40;;
14849;SDS011;7517;48.400;11.770;2023-12-22T08:03:33;1.53;;;0.37;;
14849;SDS011;7517;48.400;11.770;2023-12-22T08:06:01;0.20;;;0.20;;
14849;SDS011;7517;48.400;11.770;2023-12-22T08:08:28;0.47;;;0.20;;
14849;SDS011;7517;48.400;11.770;2023-12-22T08:10:55;0.50;;;0.27;;
14849;SDS011;7517;48.400;11.770;2023-12-22T08:13:22;0.50;;;0.30;;
14849;SDS011;7517;48.400;11.770;2023-12-22T08:15:49;0.60;;;0.30;;
14849;SDS011;7517;48.400;11.770;2023-12-22T08:18:18;0.50;;;0.40;;
14849;SDS011;7517;48.400;11.770;2023-12-22T08:20:46;0.63;;;0.30;;
14849;SDS011;7517;48.400;11.770;2023-12-22T08:23:14;1.43;;;0.43;;
14849;SDS011;7517;48.400;11.770;2023-12-22T08:25:41;0.60;;;0.50;;
14849;SDS011;7517;48.400;11.770;2023-12-22T08:28:09;1.90;;;0.80;;
14849;SDS011;7517;48.400;11.770;2023-12-22T08:30:37;0.80;;;0.77;;
14849;SDS011;7517;48.400;11.770;2023-12-22T08:33:04;1.43;;;0.50;;
14849;SDS011;7517;48.400;11.770;2023-12-22T08:35:31;0.77;;;0.40;;
14849;SDS011;7517;48.400;11.770;2023-12-22T08:38:01;1.50;;;0.53;;
14849;SDS011;7517;48.400;11.770;2023-12-22T08:40:28;0.87;;;0.50;;
14849;SDS011;7517;48.400;11.770;2023-12-22T08:42:55;3.03;;;0.70;;
14849;SDS011;7517;48.400;11.770;2023-12-22T08:45:25;1.20;;;0.50;;
14849;SDS011;7517;48.400;11.770;2023-12-22T08:47:53;1.40;;;0.43;;
14849;SDS011;7517;48.400;11.770;2023-12-22T08:50:21;1.37;;;0.60;;
14849;SDS011;7517;48.400;11.770;2023-12-22T08:52:48;0.80;;;0.40;;
14849;SDS011;7517;48.400;11.770;2023-12-22T08:55:17;1.37;;;0.40;;
14849;SDS011;7517;48.400;11.770;2023-12-22T08:57:44;1.27;;;0.60;;
14849;SDS011;7517;48.400;11.770;2023-12-22T09:00:11;1.77;;;0.50;;
14849;SDS011;7517;48.400;11.770;2023-12-22T09:02:40;0.70;;;0.47;;
14849;SDS011;7517;48.400;11.770;2023-12-22T09:05:10;1.20;;;0.47;;
14849;SDS011;7517;48.400;11.770;2023-12-22T09:07:37;1.13;;;0.60;;
14849;SDS011;7517;48.400;11.770;2023-12-22T09:10:05;1.13;;;0.40;;
14849;SDS011;7517;48.400;11.770;2023-12-22T09:12:34;1.03;;;0.50;;
14849;SDS011;7517;48.400;11.770;2023-12-22T09:15:01;1.27;;;0.47;;
14849;SDS011;7517;48.400;11.770;2023-12-22T09:17:29;2.60;;;1.10;;
14849;SDS011;7517;48.400;11.770;2023-12-22T09:19:57;0.77;;;0.67;;
14849;SDS011;7517;48.400;11.770;2023-12-22T09:22:24;1.90;;;0.60;;
14849;SDS011;7517;48.400;11.770;2023-12-22T09:24:52;2.67;;;0.80;;
14849;SDS011;7517;48.400;11.770;2023-12-22T09:27:19;1.50;;;0.70;;
14849;SDS011;7517;48.400;11.770;2023-12-22T09:29:47;2.43;;;0.80;;
14849;SDS011;7517;48.400;11.770;2023-12-22T09:32:14;2.03;;;0.80;;
14849;SDS011;7517;48.400;11.770;2023-12-22T09:34:42;3.43;;;1.13;;
14849;SDS011;7517;48.400;11.770;2023-12-22T09:37:09;4.33;;;1.37;;
14849;SDS011;7517;48.400;11.770;2023-12-22T09:39:36;3.00;;;1.07;;
14849;SDS011;7517;48.400;11.770;2023-12-22T09:42:03;3.13;;;1.00;;
14849;SDS011;7517;48.400;11.770;2023-12-22T09:44:32;3.30;;;0.70;;
14849;SDS011;7517;48.400;11.770;2023-12-22T09:47:01;3.00;;;1.47;;
14849;SDS011;7517;48.400;11.770;2023-12-22T09:49:32;1.63;;;0.83;;
14849;SDS011;7517;48.400;11.770;2023-12-22T09:52:01;1.03;;;0.63;;
14849;SDS011;7517;48.400;11.770;2023-12-22T09:54:30;1.00;;;0.50;;
14849;SDS011;7517;48.400;11.770;2023-12-22T09:56:59;1.57;;;0.60;;
14849;SDS011;7517;48.400;11.770;2023-12-22T09:59:27;3.07;;;0.80;;
14849;SDS011;7517;48.400;11.770;2023-12-22T10:01:58;1.13;;;0.90;;
14849;SDS011;7517;48.400;11.770;2023-12-22T10:04:29;3.30;;;1.23;;
14849;SDS011;7517;48.400;11.770;2023-12-22T10:06:58;1.90;;;0.70;;
14849;SDS011;7517;48.400;11.770;2023-12-22T10:09:29;5.40;;;1.27;;
14849;SDS011;7517;48.400;11.770;2023-12-22T10:12:00;1.87;;;1.10;;
14849;SDS011;7517;48.400;11.770;2023-12-22T10:14:30;5.13;;;1.57;;
14849;SDS011;7517;48.400;11.770;2023-12-22T10:17:02;4.37;;;1.53;;
14849;SDS011;7517;48.400;11.770;2023-12-22T10:19:30;1.73;;;1.20;;
14849;SDS011;7517;48.400;11.770;2023-12-22T10:21:57;2.47;;;1.50;;
14849;SDS011;7517;48.400;11.770;2023-12-22T10:24:37;1.63;;;1.10;;
14849;SDS011;7517;48.400;11.770;2023-12-22T10:27:07;2.30;;;1.00;;
14849;SDS011;7517;48.400;11.770;2023-12-22T10:29:35;3.70;;;1.50;;
14849;SDS011;7517;48.400;11.770;2023-12-22T10:32:06;2.93;;;1.57;;
14849;SDS011;7517;48.400;11.770;2023-12-22T10:34:34;1.57;;;0.90;;
14849;SDS011;7517;48.400;11.770;2023-12-22T10:37:05;1.50;;;0.70;;
14849;SDS011;7517;48.400;11.770;2023-12-22T10:39:35;2.23;;;0.77;;
14849;SDS011;7517;48.400;11.770;2023-12-22T10:42:03;1.20;;;0.50;;
14849;SDS011;7517;48.400;11.770;2023-12-22T10:44:31;2.67;;;1.00;;
14849;SDS011;7517;48.400;11.770;2023-12-22T10:46:58;0.93;;;0.70;;
14849;SDS011;7517;48.400;11.770;2023-12-22T10:49:29;1.77;;;0.40;;
14849;SDS011;7517;48.400;11.770;2023-12-22T10:51:59;0.20;;;0.20;;
14849;SDS011;7517;48.400;11.770;2023-12-22T10:54:26;0.70;;;0.30;;
14849;SDS011;7517;48.400;11.770;2023-12-22T10:56:54;1.93;;;0.40;;
14849;SDS011;7517;48.400;11.770;2023-12-22T10:59:24;0.67;;;0.50;;
14849;SDS011;7517;48.400;11.770;2023-12-22T11:01:56;1.93;;;0.70;;
14849;SDS011;7517;48.400;11.770;2023-12-22T11:04:25;1.17;;;0.50;;
14849;SDS011;7517;48.400;11.770;2023-12-22T11:07:03;0.87;;;0.30;;
14849;SDS011;7517;48.400;11.770;2023-12-22T11:09:32;0.97;;;0.60;;
14849;SDS011;7517;48.400;11.770;2023-12-22T11:12:03;0.60;;;0.30;;
14849;SDS011;7517;48.400;11.770;2023-12-22T11:14:33;0.40;;;0.40;;
14849;SDS011;7517;48.400;11.770;2023-12-22T11:17:02;0.80;;;0.53;;
14849;SDS011;7517;48.400;11.770;2023-12-22T11:19:32;1.33;;;0.40;;
14849;SDS011;7517;48.400;11.770;2023-12-22T11:22:03;0.30;;;0.20;;
14849;SDS011;7517;48.400;11.770;2023-12-22T11:24:33;0.30;;;0.20;;
14849;SDS011;7517;48.400;11.770;2023-12-22T11:27:03;2.00;;;0.30;;
14849;SDS011;7517;48.400;11.770;2023-12-22T11:29:32;0.60;;;0.30;;
14849;SDS011;7517;48.400;11.770;2023-12-22T11:32:02;1.00;;;0.50;;
14849;SDS011;7517;48.400;11.770;2023-12-22T11:34:34;2.47;;;0.50;;
14849;SDS011;7517;48.400;11.770;2023-12-22T11:37:05;0.50;;;0.40;;
14849;SDS011;7517;48.400;11.770;2023-12-22T11:39:34;2.33;;;0.73;;
14849;SDS011;7517;48.400;11.770;2023-12-22T11:42:01;0.40;;;0.40;;
14849;SDS011;7517;48.400;11.770;2023-12-22T11:44:31;0.73;;;0.47;;
14849;SDS011;7517;48.400;11.770;2023-12-22T11:47:05;1.23;;;0.60;;
14849;SDS011;7517;48.400;11.770;2023-12-22T11:49:35;0.30;;;0.30;;
14849;SDS011;7517;48.400;11.770;2023-12-22T11:52:09;1.37;;;0.40;;
14849;SDS011;7517;48.400;11.770;2023-12-22T11:54:44;1.03;;;0.40;;
14849;SDS011;7517;48.400;11.770;2023-12-22T12:00:05;0.80;;;0.47;;
14849;SDS011;7517;48.400;11.770;2023-12-22T12:02:36;1.53;;;0.73;;
14849;SDS011;7517;48.400;11.770;2023-12-22T12:05:06;1.87;;;0.80;;
14849;SDS011;7517;48.400;11.770;2023-12-22T12:07:38;4.40;;;0.90;;
14849;SDS011;7517;48.400;11.770;2023-12-22T12:10:10;5.03;;;0.80;;
14849;SDS011;7517;48.400;11.770;2023-12-22T12:12:39;3.20;;;1.20;;
14849;SDS011;7517;48.400;11.770;2023-12-22T12:15:07;6.37;;;1.30;;
14849;SDS011;7517;48.400;11.770;2023-12-22T12:17:43;5.23;;;1.83;;
14849;SDS011;7517;48.400;11.770;2023-12-22T12:20:11;3.30;;;1.40;;
14849;SDS011;7517;48.400;11.770;2023-12-22T12:22:39;2.70;;;0.83;;
14849;SDS011;7517;48.400;11.770;2023-12-22T12:25:09;2.20;;;0.83;;
14849;SDS011;7517;48.400;11.770;2023-12-22T12:27:37;2.73;;;0.80;;
14849;SDS011;7517;48.400;11.770;2023-12-22T12:30:12;1.70;;;0.70;;
14849;SDS011;7517;48.400;11.770;2023-12-22T12:32:41;3.27;;;1.10;;
14849;SDS011;7517;48.400;11.770;2023-12-22T12:35:12;2.73;;;1.30;;
14849;SDS011;7517;48.400;11.770;2023-12-22T12:37:39;3.70;;;1.10;;
14849;SDS011;7517;48.400;11.770;2023-12-22T12:40:10;5.03;;;1.37;;
14849;SDS011;7517;48.400;11.770;2023-12-22T12:42:38;1.80;;;0.80;;
14849;SDS011;7517;48.400;11.770;2023-12-22T12:45:05;2.90;;;1.23;;
14849;SDS011;7517;48.400;11.770;2023-12-22T12:47:34;1.30;;;0.63;;
14849;SDS011;7517;48.400;11.770;2023-12-22T12:50:01;2.13;;;1.00;;
14849;SDS011;7517;48.400;11.770;2023-12-22T12:52:31;3.93;;;0.90;;
14849;SDS011;7517;48.400;11.770;2023-12-22T12:54:58;1.60;;;0.90;;
14849;SDS011;7517;48.400;11.770;2023-12-22T12:57:26;1.27;;;0.50;;
14849;SDS011;7517;48.400;11.770;2023-12-22T12:59:53;1.03;;;0.70;;
14849;SDS011;7517;48.400;11.770;2023-12-22T13:02:20;1.70;;;0.93;;
14849;SDS011;7517;48.400;11.770;2023-12-22T13:04:48;0.87;;;0.60;;
14849;SDS011;7517;48.400;11.770;2023-12-22T13:07:23;2.13;;;0.60;;
14849;SDS011;7517;48.400;11.770;2023-12-22T13:09:52;2.53;;;0.87;;
14849;SDS011;7517;48.400;11.770;2023-12-22T13:12:22;1.43;;;0.90;;
14849;SDS011;7517;48.400;11.770;2023-12-22T13:14:50;1.27;;;0.50;;
14849;SDS011;7517;48.400;11.770;2023-12-22T13:17:18;1.03;;;0.83;;
14849;SDS011;7517;48.400;11.770;2023-12-22T13:19:46;0.50;;;0.50;;
14849;SDS011;7517;48.400;11.770;2023-12-22T13:22:13;1.33;;;0.67;;
14849;SDS011;7517;48.400;11.770;2023-12-22T13:24:41;1.70;;;0.70;;
14849;SDS011;7517;48.400;11.770;2023-12-22T13:27:09;0.60;;;0.50;;
14849;SDS011;7517;48.400;11.770;2023-12-22T13:29:42;0.90;;;0.40;;
14849;SDS011;7517;48.400;11.770;2023-12-22T13:32:14;0.67;;;0.50;;
14849;SDS011;7517;48.400;11.770;2023-12-22T13:34:47;1.63;;;0.57;;
14849;SDS011;7517;48.400;11.770;2023-12-22T13:37:16;1.90;;;0.60;;
14849;SDS011;7517;48.400;11.770;2023-12-22T13:39:43;1.47;;;0.50;;
14849;SDS011;7517;48.400;11.770;2023-12-22T13:42:16;1.13;;;0.87;;
14849;SDS011;7517;48.400;11.770;2023-12-22T13:44:46;0.77;;;0.60;;
14849;SDS011;7517;48.400;11.770;2023-12-22T13:47:15;0.90;;;0.60;;
14849;SDS011;7517;48.400;11.770;2023-12-22T13:49:43;2.00;;;0.90;;
14849;SDS011;7517;48.400;11.770;2023-12-22T13:52:26;1.47;;;0.50;;
14849;SDS011;7517;48.400;11.770;2023-12-22T13:54:57;1.30;;;0.50;;
14849;SDS011;7517;48.400;11.770;2023-12-22T13:57:27;1.07;;;0.67;;
14849;SDS011;7517;48.400;11.770;2023-12-22T13:59:55;3.23;;;1.07;;
14849;SDS011;7517;48.400;11.770;2023-12-22T14:02:22;0.87;;;0.50;;
14849;SDS011;7517;48.400;11.770;2023-12-22T14:04:50;1.80;;;1.50;;
14849;SDS011;7517;48.400;11.770;2023-12-22T14:07:17;1.73;;;0.70;;
14849;SDS011;7517;48.400;11.770;2023-12-22T14:09:44;0.97;;;0.60;;
14849;SDS011;7517;48.400;11.770;2023-12-22T14:12:12;1.47;;;1.30;;
14849;SDS011;7517;48.400;11.770;2023-12-22T14:14:41;0.63;;;0.63;;
14849;SDS011;7517;48.400;11.770;2023-12-22T14:17:08;1.27;;;0.60;;
14849;SDS011;7517;48.400;11.770;2023-12-22T14:19:35;1.90;;;0.80;;
14849;SDS011;7517;48.400;11.770;2023-12-22T14:22:02;1.30;;;0.80;;
14849;SDS011;7517;48.400;11.770;2023-12-22T14:24:29;1.73;;;0.60;;
14849;SDS011;7517;48.400;11.770;2023-12-22T14:26:57;1.50;;;0.70;;
14849;SDS011;7517;48.400;11.770;2023-12-22T14:29:24;1.37;;;0.70;;
14849;SDS011;7517;48.400;11.770;2023-12-22T14:31:52;0.67;;;0.63;;
14849;SDS011;7517;48.400;11.770;2023-12-22T14:34:19;1.80;;;1.00;;
14849;SDS011;7517;48.400;11.770;2023-12-22T14:36:47;1.10;;;0.57;;
14849;SDS011;7517;48.400;11.770;2023-12-22T14:39:14;1.77;;;1.00;;
14849;SDS011;7517;48.400;11.770;2023-12-22T14:41:41;1.10;;;0.67;;
14849;SDS011;7517;48.400;11.770;2023-12-22T14:44:09;0.73;;;0.60;;
14849;SDS011;7517;48.400;11.770;2023-12-22T14:46:39;1.03;;;0.70;;
14849;SDS011;7517;48.400;11.770;2023-12-22T14:49:07;1.50;;;0.57;;
14849;SDS011;7517;48.400;11.770;2023-12-22T14:51:35;1.40;;;0.77;;
14849;SDS011;7517;48.400;11.770;2023-12-22T14:54:03;0.70;;;0.57;;
14849;SDS011;7517;48.400;11.770;2023-12-22T14:56:31;0.80;;;0.40;;
14849;SDS011;7517;48.400;11.770;2023-12-22T14:58:58;0.40;;;0.40;;